PST,Max TemperatureF,Mean TemperatureF,Min TemperatureF,Max Dew PointF,MeanDew PointF,Min DewpointF,Max Humidity, Mean Humidity, Min Humidity, Max Sea Level PressureIn, Mean Sea Level PressureIn, Min Sea Level PressureIn, Max VisibilityMiles, Mean VisibilityMiles, Min VisibilityMiles, Max Wind SpeedMPH, Mean Wind SpeedMPH, Max Gust SpeedMPH,PrecipitationIn, CloudCover, Events, WindDirDegrees
2011-11-1,64,54,44,43,39,34,76,56,42,30.13,30.08,30.04,6,5,3,16,10,22,0.00,0,,307
2011-11-2,57,49,41,1,-3,-8,17,12,9,30.33,30.25,30.18,10,9,5,28,19,40,0.00,0,,125
2011-11-3,64,52,41,39,15,0,81,25,13,30.19,30.01,29.84,10,9,6,25,13,32,0.00,0,,124
2011-11-4,44,38,32,39,36,32,100,95,76,29.84,29.77,29.72,10,5,0,26,13,34,0.46,1,Rain,302
2011-11-5,42,37,32,32,30,27,100,79,53,30.00,29.95,29.87,10,8,3,21,14,28,0.00,1,,304
2011-11-6,44,38,32,36,32,27,100,82,61,30.00,29.95,29.92,10,8,1,20,8,24,0.36,0,Rain-Snow,291
2011-11-7,41,36,32,36,33,30,100,85,70,30.25,30.15,30.06,9,6,2,14,10,16,0.00,1,,311
2011-11-8,51,36,21,34,25,19,100,66,33,30.32,30.27,30.22,10,8,4,14,3,17,0.00,0,Rain,117
2011-11-9,55,46,37,19,13,9,48,28,15,30.38,30.32,30.27,10,10,5,26,16,34,0.00,0,Rain,124
2011-11-10,55,47,39,18,14,9,33,25,20,30.33,30.24,30.12,10,10,7,28,16,34,0.00,0,,124
2011-11-11,57,50,44,39,28,16,76,45,27,30.08,29.98,29.87,10,9,2,21,14,34,0.05,0,Rain,119
2011-11-12,53,45,37,41,37,34,93,78,62,29.96,29.88,29.83,10,8,1,23,13,31,0.08,0,Rain,113
2011-11-13,53,43,33,43,40,32,100,87,67,30.05,29.99,29.95,8,4,1,15,6,20,0.00,1,Rain,316
2011-11-14,55,42,30,45,37,30,100,81,47,30.10,30.02,29.96,10,7,1,18,6,22,0.00,0,,305
2011-11-15,50,46,42,45,41,39,100,84,71,30.18,30.13,30.10,7,4,2,22,11,26,0.00,2,,296
2011-11-16,62,47,32,45,38,30,100,79,30,30.27,30.22,30.17,10,4,1,14,6,16,0.64,0,Rain,214
2011-11-17,59,44,28,43,35,27,100,78,38,30.25,30.15,30.05,9,6,2,20,5,25,0.00,0,,314
2011-11-18,46,42,39,45,41,36,100,95,81,30.04,29.95,29.88,8,3,0,25,18,33,0.00,3,Fog-Rain,298
2011-11-19,39,36,32,37,34,28,100,88,75,29.93,29.89,29.85,10,8,3,24,16,30,0.00,1,Rain,308
2011-11-20,42,33,24,37,33,25,100,91,70,29.99,29.90,29.84,10,7,2,17,6,25,0.31,0,Rain,104
2011-11-21,48,38,28,37,34,27,100,88,58,30.29,30.15,30.00,10,7,0,16,4,21,0.00,2,Fog-Rain,306
2011-11-22,55,39,23,37,30,19,93,71,47,30.31,30.26,30.21,10,9,3,14,5,18,0.00,0,,112
2011-11-23,57,46,35,36,32,30,81,55,36,30.19,30.04,29.93,10,9,5,22,12,34,0.00,0,,108
2011-11-24,50,44,37,39,34,27,93,71,46,30.17,30.02,29.92,10,7,2,21,9,26,0.00,0,,302
2011-11-25,53,44,35,43,39,36,100,89,58,30.39,30.29,30.18,10,5,0,17,11,23,0.00,2,Fog-Rain,317
2011-11-26,62,45,28,32,21,14,100,36,19,30.48,30.44,30.39,10,9,1,22,9,30,0.00,0,,113
2011-11-27,66,50,35,21,17,14,56,27,13,30.48,30.42,30.38,10,9,6,16,12,24,0.00,0,,113
2011-11-28,68,48,28,27,22,16,69,43,14,30.37,30.31,30.26,10,10,7,13,4,,0.00,0,,210
2011-11-29,73,54,35,27,23,18,65,38,13,30.29,30.25,30.21,10,9,5,13,4,,0.00,0,,104
2011-11-30,51,42,33,36,30,21,100,70,37,30.19,30.04,29.93,10,6,0,24,10,32,0.01,1,Fog-Rain,307